createdAt,value
2018-09-06T00:00:54.388Z,18.90
2018-09-06T00:03:21.402Z,18.60
2018-09-06T00:05:48.433Z,18.50
2018-09-06T00:08:15.442Z,18.30
2018-09-06T00:10:42.441Z,18.20
2018-09-06T00:13:10.342Z,18.10
2018-09-06T00:15:38.298Z,18.00
2018-09-06T00:18:05.307Z,18.00
2018-09-06T00:25:26.557Z,18.30
2018-09-06T00:27:53.596Z,18.40
2018-09-06T00:32:47.699Z,18.50
2018-09-06T00:35:14.753Z,18.50
2018-09-06T00:42:48.233Z,18.00
2018-09-06T00:45:15.235Z,18.00
2018-09-06T00:47:43.136Z,18.10
2018-09-06T00:50:10.169Z,18.30
2018-09-06T00:52:37.179Z,18.40
2018-09-06T00:55:04.222Z,18.40
2018-09-06T00:57:32.185Z,18.50
2018-09-06T00:59:59.942Z,18.50
2018-09-06T01:02:26.987Z,18.50
2018-09-06T01:04:53.996Z,18.60
2018-09-06T01:07:20.988Z,18.40
2018-09-06T01:09:48.036Z,18.20
2018-09-06T01:12:15.038Z,18.30
2018-09-06T01:14:42.037Z,18.30
2018-09-06T01:17:09.095Z,18.30
2018-09-06T01:19:36.086Z,18.30
2018-09-06T01:22:03.090Z,18.30
2018-09-06T01:24:30.120Z,18.40
2018-09-06T01:26:57.120Z,18.30
2018-09-06T01:29:24.136Z,18.30
2018-09-06T01:31:51.183Z,18.30
2018-09-06T01:34:18.199Z,18.30
2018-09-06T01:36:46.056Z,18.20
2018-09-06T01:39:13.960Z,18.20
2018-09-06T01:41:41.913Z,18.20
2018-09-06T01:44:08.937Z,18.10
2018-09-06T01:46:35.988Z,18.00
2018-09-06T01:49:02.986Z,18.00
2018-09-06T01:51:29.988Z,17.80
2018-09-06T01:53:57.030Z,17.70
2018-09-06T01:59:04.562Z,17.90
2018-09-06T02:01:32.556Z,17.90
2018-09-06T02:03:59.558Z,17.90
2018-09-06T02:06:26.594Z,17.90
2018-09-06T02:08:53.605Z,18.00
2018-09-06T02:11:20.609Z,18.00
2018-09-06T02:13:48.399Z,17.90
2018-09-06T02:16:16.351Z,17.90
2018-09-06T02:18:44.213Z,17.90
2018-09-06T02:21:11.260Z,17.70
2018-09-06T02:23:38.305Z,17.60
2018-09-06T02:26:05.311Z,17.60
2018-09-06T02:28:32.372Z,17.50
2018-09-06T02:30:59.385Z,17.40
2018-09-06T02:33:26.382Z,17.50
2018-09-06T02:35:53.452Z,17.60
2018-09-06T02:38:20.449Z,17.50
2018-09-06T02:40:47.448Z,17.30
2018-09-06T02:43:14.481Z,17.30
2018-09-06T02:45:41.495Z,17.40
2018-09-06T02:48:08.501Z,17.50
2018-09-06T02:50:35.552Z,17.30
2018-09-06T02:53:02.954Z,17.20
2018-09-06T02:55:29.877Z,17.10
2018-09-06T02:57:56.901Z,17.20
2018-09-06T03:00:23.897Z,17.30
2018-09-06T03:02:50.893Z,17.40
2018-09-06T03:05:21.907Z,17.40
2018-09-06T03:07:49.008Z,17.50
2018-09-06T03:12:43.935Z,17.40
2018-09-06T03:17:51.446Z,17.50
2018-09-06T03:20:18.446Z,17.50
2018-09-06T03:22:46.176Z,17.40
2018-09-06T03:25:14.174Z,17.30
2018-09-06T03:27:41.192Z,17.40
2018-09-06T03:32:35.326Z,17.20
2018-09-06T03:35:03.069Z,17.30
2018-09-06T03:37:30.089Z,17.30
2018-09-06T03:42:25.171Z,17.30
2018-09-06T03:44:52.192Z,17.40
2018-09-06T03:47:19.240Z,17.40
2018-09-06T03:49:46.241Z,17.20
2018-09-06T03:52:13.268Z,17.30
2018-09-06T03:54:41.254Z,17.20
2018-09-06T03:57:08.255Z,17.10
2018-09-06T03:59:35.259Z,17.10
2018-09-06T04:02:02.310Z,17.00
2018-09-06T04:04:29.320Z,17.10
2018-09-06T04:09:38.528Z,17.10
2018-09-06T04:12:05.541Z,17.20
2018-09-06T04:16:59.658Z,17.20
2018-09-06T04:19:26.654Z,17.10
2018-09-06T04:21:53.665Z,17.10
2018-09-06T04:24:20.789Z,17.00
2018-09-06T04:26:47.710Z,16.90
2018-09-06T04:29:14.709Z,16.90
2018-09-06T04:31:41.754Z,16.90
2018-09-06T04:34:08.761Z,16.90
2018-09-06T04:36:35.756Z,16.90
2018-09-06T04:39:02.790Z,16.90
2018-09-06T04:41:29.783Z,16.90
2018-09-06T04:46:23.935Z,16.90
2018-09-06T04:48:50.938Z,16.90
2018-09-06T04:51:17.937Z,16.80
2018-09-06T04:53:44.973Z,16.80
2018-09-06T04:56:11.988Z,16.80
2018-09-06T04:58:39.060Z,16.80
2018-09-06T05:01:06.046Z,16.70
2018-09-06T05:06:00.974Z,16.50
2018-09-06T05:08:28.012Z,16.40
2018-09-06T05:10:55.018Z,16.40
2018-09-06T05:13:22.030Z,16.50
2018-09-06T05:15:49.073Z,16.50
2018-09-06T05:18:16.086Z,16.30
2018-09-06T05:23:11.044Z,16.40
2018-09-06T05:28:16.602Z,16.60
2018-09-06T05:30:44.626Z,16.70
2018-09-06T05:33:12.341Z,16.70
2018-09-06T05:35:38.887Z,16.60
2018-09-06T05:38:05.906Z,16.70
2018-09-06T05:40:32.903Z,16.60
2018-09-06T05:42:59.949Z,16.80
2018-09-06T05:45:27.002Z,16.70
2018-09-06T05:47:54.352Z,16.60
2018-09-06T05:50:21.396Z,16.70
2018-09-06T05:52:48.408Z,16.80
2018-09-06T05:55:15.425Z,16.90
2018-09-06T05:57:42.476Z,17.00
2018-09-06T06:00:09.579Z,17.00
2018-09-06T06:02:37.365Z,16.90
2018-09-06T06:05:05.368Z,16.80
2018-09-06T06:07:33.107Z,16.80
2018-09-06T06:10:00.130Z,16.70
2018-09-06T06:12:27.179Z,16.90
2018-09-06T06:17:21.299Z,17.40
2018-09-06T06:19:48.579Z,17.50
2018-09-06T06:22:15.935Z,17.40
2018-09-06T06:24:42.829Z,17.70
2018-09-06T06:27:09.896Z,18.00
2018-09-06T06:29:36.908Z,18.00
2018-09-06T06:34:31.033Z,18.00
2018-09-06T06:36:58.064Z,18.10
2018-09-06T06:41:52.758Z,17.90
2018-09-06T06:46:58.261Z,18.10
2018-09-06T06:49:25.279Z,18.40
2018-09-06T06:51:53.255Z,18.80
2018-09-06T06:54:20.306Z,19.00
2018-09-06T06:56:47.314Z,19.20
2018-09-06T06:59:14.316Z,19.60
2018-09-06T07:01:41.359Z,19.70
2018-09-06T07:04:08.424Z,19.70
2018-09-06T07:06:35.369Z,19.90
2018-09-06T07:09:02.421Z,20.00
2018-09-06T07:11:29.424Z,20.20
2018-09-06T07:13:56.438Z,20.30
2018-09-06T07:16:23.488Z,20.40
2018-09-06T07:21:18.407Z,20.60
2018-09-06T07:26:23.893Z,20.90
2018-09-06T07:28:50.958Z,21.20
2018-09-06T07:31:18.245Z,21.40
2018-09-06T07:33:45.020Z,20.30
2018-09-06T07:36:12.074Z,20.10
2018-09-06T07:38:39.066Z,20.40
2018-09-06T07:41:06.089Z,20.80
2018-09-06T07:43:33.115Z,21.20
2018-09-06T07:46:01.074Z,21.50
2018-09-06T07:48:28.952Z,21.30
2018-09-06T07:50:56.814Z,21.60
2018-09-06T07:53:23.814Z,21.60
2018-09-06T07:55:50.805Z,22.00
2018-09-06T07:58:17.837Z,22.10
2018-09-06T08:00:44.843Z,22.10
2018-09-06T08:03:12.739Z,22.40
2018-09-06T08:05:39.775Z,22.40
2018-09-06T08:08:06.785Z,22.20
2018-09-06T08:10:33.779Z,21.80
2018-09-06T08:13:00.804Z,21.80
2018-09-06T08:15:27.806Z,22.30
2018-09-06T08:17:54.807Z,22.10
2018-09-06T08:20:21.837Z,22.10
2018-09-06T08:22:48.833Z,22.40
2018-09-06T08:27:54.347Z,22.60
2018-09-06T08:30:21.358Z,23.00
2018-09-06T08:32:48.348Z,23.10
2018-09-06T08:35:15.368Z,23.30
2018-09-06T08:37:42.367Z,23.70
2018-09-06T08:40:09.364Z,23.80
2018-09-06T08:42:36.415Z,23.90
2018-09-06T08:47:30.582Z,24.10
2018-09-06T19:13:55.598Z,18.80
2018-09-06T19:18:49.636Z,18.20
2018-09-06T19:21:19.864Z,17.80
2018-09-06T19:23:48.665Z,17.70
2018-09-06T19:26:16.892Z,17.60
